createdAt,value
2018-12-25T00:01:01.492Z,11.07
2018-12-25T00:03:31.336Z,11.17
2018-12-25T00:06:01.218Z,10.70
2018-12-25T00:08:31.889Z,11.40
2018-12-25T00:11:04.103Z,10.47
2018-12-25T00:13:35.661Z,10.43
2018-12-25T00:16:06.442Z,10.60
2018-12-25T00:18:36.400Z,10.93
2018-12-25T00:21:06.310Z,10.60
2018-12-25T00:23:37.016Z,10.37
2018-12-25T00:26:06.869Z,9.30
2018-12-25T00:28:37.705Z,9.97
2018-12-25T00:31:07.755Z,10.30
2018-12-25T00:33:39.833Z,10.40
2018-12-25T00:36:10.737Z,10.50
2018-12-25T00:38:40.653Z,10.83
2018-12-25T00:41:10.646Z,10.03
2018-12-25T00:43:48.917Z,10.57
2018-12-25T00:46:18.762Z,10.33
2018-12-25T00:48:48.709Z,9.80
2018-12-25T00:51:18.919Z,9.30
2018-12-25T00:53:50.278Z,10.30
2018-12-25T00:56:22.588Z,9.93
2018-12-25T00:58:58.850Z,9.67
2018-12-25T01:01:28.677Z,8.97
2018-12-25T01:03:58.629Z,10.70
2018-12-25T01:06:28.814Z,8.90
2018-12-25T01:09:01.939Z,9.87
2018-12-25T01:11:33.087Z,9.73
2018-12-25T01:14:03.157Z,9.50
2018-12-25T01:16:36.654Z,10.37
2018-12-25T01:19:07.683Z,10.80
2018-12-25T01:21:37.456Z,11.63
2018-12-25T01:24:12.990Z,10.60
2018-12-25T01:26:42.843Z,10.77
2018-12-25T01:29:13.021Z,9.80
2018-12-25T01:31:43.068Z,10.50
2018-12-25T01:34:14.785Z,10.80
2018-12-25T01:36:44.698Z,10.73
2018-12-25T01:39:18.138Z,10.00
2018-12-25T01:41:51.021Z,11.40
2018-12-25T01:44:21.803Z,10.23
2018-12-25T01:46:51.449Z,10.37
2018-12-25T01:49:21.284Z,11.40
2018-12-25T01:51:52.140Z,10.23
2018-12-25T01:54:24.898Z,10.20
2018-12-25T01:56:54.752Z,10.20
2018-12-25T01:59:24.574Z,10.00
2018-12-25T02:01:55.290Z,11.33
2018-12-25T02:04:25.130Z,11.13
2018-12-25T02:06:56.839Z,12.00
2018-12-25T02:09:27.057Z,12.10
2018-12-25T02:11:58.686Z,11.83
2018-12-25T02:14:29.599Z,10.43
2018-12-25T02:17:00.417Z,11.07
2018-12-25T02:19:30.481Z,11.03
2018-12-25T02:22:00.191Z,10.87
2018-12-25T02:24:30.948Z,11.50
2018-12-25T02:27:03.440Z,10.93
2018-12-25T02:29:34.753Z,11.60
2018-12-25T02:32:04.688Z,11.37
2018-12-25T02:34:36.209Z,12.40
2018-12-25T02:37:06.096Z,12.53
2018-12-25T02:39:38.865Z,11.10
2018-12-25T02:42:08.999Z,11.80
2018-12-25T02:44:39.841Z,11.23
2018-12-25T02:47:10.264Z,10.60
2018-12-25T02:49:40.089Z,11.80
2018-12-25T02:52:11.111Z,13.00
2018-12-25T02:54:42.457Z,10.93
2018-12-25T02:57:14.094Z,12.10
2018-12-25T02:59:45.570Z,12.23
2018-12-25T03:02:18.260Z,12.50
2018-12-25T03:04:48.124Z,13.20
2018-12-25T03:07:18.889Z,11.70
2018-12-25T03:09:48.747Z,12.97
2018-12-25T03:12:18.660Z,13.20
2018-12-25T03:14:50.609Z,13.03
2018-12-25T03:17:20.570Z,12.63
2018-12-25T03:19:59.687Z,13.07
2018-12-25T03:22:23.053Z,12.40
2018-12-25T03:24:52.990Z,14.00
2018-12-25T03:27:23.752Z,13.07
2018-12-25T03:29:53.745Z,14.50
2018-12-25T03:32:25.217Z,12.80
2018-12-25T03:34:55.135Z,13.77
2018-12-25T03:37:24.958Z,11.67
2018-12-25T03:39:54.815Z,12.30
2018-12-25T03:42:26.332Z,12.30
2018-12-25T03:45:00.502Z,13.50
2018-12-25T03:47:33.523Z,13.80
2018-12-25T03:50:10.424Z,13.03
2018-12-25T03:52:37.371Z,12.63
2018-12-25T03:55:08.618Z,11.23
2018-12-25T03:57:39.992Z,12.20
2018-12-25T04:00:09.779Z,13.13
2018-12-25T04:02:39.649Z,12.83
2018-12-25T04:05:09.424Z,13.47
2018-12-25T04:07:39.302Z,14.60
2018-12-25T04:10:08.997Z,13.17
2018-12-25T04:12:40.670Z,12.63
2018-12-25T04:15:11.851Z,14.13
2018-12-25T04:17:41.471Z,12.70
2018-12-25T04:20:19.504Z,14.87
2018-12-25T04:22:44.015Z,12.57
2018-12-25T04:25:13.835Z,13.47
2018-12-25T04:27:43.619Z,13.30
2018-12-25T04:30:13.723Z,13.07
2018-12-25T04:32:43.695Z,14.90
2018-12-25T04:35:13.565Z,12.77
2018-12-25T04:37:45.425Z,12.50
2018-12-25T04:40:15.178Z,13.47
2018-12-25T04:42:44.838Z,13.80
2018-12-25T04:45:14.764Z,14.17
2018-12-25T04:47:44.888Z,14.27
2018-12-25T04:50:14.726Z,14.77
2018-12-25T04:52:46.123Z,15.53
2018-12-25T04:55:15.937Z,15.60
2018-12-25T04:57:45.770Z,14.53
2018-12-25T05:00:15.702Z,14.33
2018-12-25T05:02:45.542Z,13.27
2018-12-25T05:05:15.242Z,15.60
2018-12-25T05:07:45.122Z,15.10
2018-12-25T05:10:20.649Z,14.70
2018-12-25T05:12:50.668Z,16.40
2018-12-25T05:15:22.529Z,14.20
2018-12-25T05:17:53.307Z,15.17
2018-12-25T05:20:24.813Z,14.23
2018-12-25T05:22:54.672Z,15.53
2018-12-25T05:25:24.834Z,14.17
2018-12-25T05:27:54.617Z,14.80
2018-12-25T05:30:24.689Z,15.90
2018-12-25T05:32:54.563Z,15.63
2018-12-25T05:35:24.257Z,15.60
2018-12-25T05:37:54.127Z,16.77
2018-12-25T05:40:24.221Z,15.57
2018-12-25T05:42:55.427Z,15.20
2018-12-25T05:45:25.231Z,14.33
2018-12-25T05:47:55.097Z,14.50
2018-12-25T05:50:24.914Z,14.40
2018-12-25T05:52:55.657Z,15.27
2018-12-25T05:55:25.472Z,14.70
2018-12-25T05:57:55.509Z,15.77
2018-12-25T06:00:25.307Z,14.97
2018-12-25T06:02:55.890Z,16.13
2018-12-25T06:05:26.077Z,15.23
2018-12-25T06:07:55.727Z,17.43
2018-12-25T06:10:25.505Z,14.70
2018-12-25T06:12:55.224Z,14.87
2018-12-25T06:15:26.280Z,16.33
2018-12-25T06:17:57.048Z,15.10
2018-12-25T06:20:26.755Z,14.83
2018-12-25T06:22:56.970Z,15.50
2018-12-25T06:25:26.754Z,16.90
2018-12-25T06:27:57.020Z,14.90
2018-12-25T06:30:29.870Z,15.87
2018-12-25T06:32:59.585Z,15.73
2018-12-25T06:35:30.788Z,15.40
2018-12-25T06:38:00.592Z,17.57
2018-12-25T06:40:33.413Z,16.00
2018-12-25T06:43:04.901Z,16.47
2018-12-25T06:45:39.186Z,16.40
2018-12-25T06:48:09.899Z,15.30
2018-12-25T06:50:39.487Z,18.40
2018-12-25T06:53:10.214Z,16.20
2018-12-25T06:55:40.202Z,17.53
2018-12-25T06:58:12.721Z,16.93
2018-12-25T07:00:42.516Z,16.00
2018-12-25T07:03:17.606Z,16.33
2018-12-25T07:05:47.482Z,17.17
2018-12-25T07:08:17.247Z,17.10
2018-12-25T07:10:46.975Z,15.97
2018-12-25T07:13:16.612Z,16.67
2018-12-25T07:15:47.792Z,17.80
2018-12-25T07:18:19.491Z,18.87
2018-12-25T07:20:50.068Z,16.50
2018-12-25T07:23:19.812Z,15.63
2018-12-25T07:25:51.060Z,17.40
2018-12-25T07:28:20.840Z,17.23
2018-12-25T07:30:50.548Z,16.17
2018-12-25T07:33:21.214Z,17.13
2018-12-25T07:35:53.786Z,18.30
2018-12-25T07:38:27.575Z,18.00
2018-12-25T07:41:01.493Z,16.50
2018-12-25T07:43:31.418Z,17.90
2018-12-25T07:46:01.225Z,16.90
2018-12-25T07:48:35.386Z,16.53
2018-12-25T07:51:05.363Z,17.63
2018-12-25T07:53:35.362Z,17.23
2018-12-25T07:56:05.190Z,15.23
2018-12-25T07:58:34.999Z,19.27
2018-12-25T08:01:04.694Z,17.30
2018-12-25T08:03:37.043Z,19.00
2018-12-25T08:06:07.800Z,19.17
2018-12-25T08:08:37.889Z,17.93
2018-12-25T08:11:07.573Z,16.77
2018-12-25T08:13:37.539Z,18.00
2018-12-25T08:16:09.018Z,17.90
2018-12-25T08:18:40.214Z,18.43
2018-12-25T08:21:09.997Z,17.43
2018-12-25T08:23:42.546Z,17.40
2018-12-25T08:26:12.256Z,19.80
2018-12-25T08:28:42.001Z,19.47
2018-12-25T08:31:11.640Z,17.73
2018-12-25T08:33:41.503Z,17.30
2018-12-25T08:36:11.265Z,18.17
2018-12-25T08:38:40.970Z,18.70
2018-12-25T08:41:11.755Z,19.60
2018-12-25T08:43:41.490Z,18.30
2018-12-25T08:46:11.138Z,17.83
2018-12-25T08:48:40.813Z,18.37
2018-12-25T08:51:10.514Z,19.03
2018-12-25T08:53:40.322Z,20.93
2018-12-25T08:56:09.999Z,17.40
2018-12-25T08:58:39.818Z,19.93
2018-12-25T09:01:10.592Z,21.73
2018-12-25T09:03:41.959Z,23.70
2018-12-25T09:06:11.794Z,22.30
2018-12-25T09:08:41.500Z,22.30
2018-12-25T09:11:11.221Z,20.27
2018-12-25T09:13:40.940Z,19.90
2018-12-25T09:16:10.673Z,21.20
2018-12-25T09:18:43.447Z,20.67
2018-12-25T09:21:13.155Z,19.60
2018-12-25T09:23:42.852Z,21.37
2018-12-25T09:26:12.610Z,20.10
2018-12-25T09:28:42.423Z,19.70
2018-12-25T09:31:12.182Z,20.40
2018-12-25T09:33:42.099Z,20.43
2018-12-25T09:36:13.926Z,20.60
2018-12-25T09:38:43.630Z,21.10
2018-12-25T09:41:16.921Z,20.40
2018-12-25T09:43:52.026Z,20.60
2018-12-25T09:46:21.821Z,20.70
2018-12-25T09:48:51.472Z,19.47
2018-12-25T09:51:21.241Z,20.10
2018-12-25T09:53:50.879Z,20.43
2018-12-25T09:56:20.756Z,19.13
2018-12-25T09:58:50.536Z,21.00
2018-12-25T10:01:20.369Z,19.47
2018-12-25T10:03:50.219Z,18.93
2018-12-25T10:06:21.189Z,21.07
2018-12-25T10:08:50.965Z,18.37
2018-12-25T10:11:20.907Z,18.30
2018-12-25T10:13:50.894Z,21.93
2018-12-25T10:16:20.602Z,18.20
2018-12-25T10:18:53.796Z,19.23
2018-12-25T10:21:26.576Z,20.10
2018-12-25T10:23:59.400Z,20.70
2018-12-25T10:26:29.151Z,19.23
2018-12-25T10:29:00.749Z,18.20
2018-12-25T10:31:36.638Z,19.00
2018-12-25T10:34:07.550Z,18.13
2018-12-25T10:36:39.160Z,18.17
2018-12-25T10:39:12.817Z,16.73
2018-12-25T10:41:42.619Z,19.30
2018-12-25T10:44:16.622Z,18.40
2018-12-25T10:46:46.434Z,17.20
2018-12-25T10:49:17.971Z,18.07
2018-12-25T10:51:53.252Z,16.60
2018-12-25T10:54:23.134Z,14.40
2018-12-25T10:56:53.127Z,16.43
2018-12-25T10:59:24.858Z,16.40
2018-12-25T11:01:56.342Z,16.57
2018-12-25T11:04:29.775Z,14.50
2018-12-25T11:06:59.669Z,17.00
2018-12-25T11:09:29.414Z,16.37
2018-12-25T11:12:00.996Z,15.03
2018-12-25T11:14:31.021Z,14.37
2018-12-25T11:17:04.964Z,14.50
2018-12-25T11:19:34.905Z,14.77
2018-12-25T11:22:08.730Z,15.57
2018-12-25T11:24:41.060Z,15.00
2018-12-25T11:27:11.464Z,16.43
2018-12-25T11:29:43.069Z,13.63
2018-12-25T11:32:15.392Z,14.77
2018-12-25T11:34:45.303Z,14.70
2018-12-25T11:37:24.779Z,15.20
2018-12-25T11:39:58.057Z,15.33
2018-12-25T11:42:29.377Z,16.03
2018-12-25T11:45:01.254Z,16.13
2018-12-25T11:47:31.090Z,14.80
2018-12-25T11:50:00.964Z,16.77
2018-12-25T11:52:37.183Z,16.53
2018-12-25T11:55:08.520Z,15.60
2018-12-25T11:57:39.769Z,15.50
2018-12-25T12:00:11.979Z,15.70
2018-12-25T12:02:43.434Z,16.70
2018-12-25T12:05:14.220Z,15.23
2018-12-25T12:07:43.939Z,16.03
2018-12-25T12:10:13.673Z,17.00
2018-12-25T12:12:46.412Z,15.73
2018-12-25T12:15:17.163Z,17.20
2018-12-25T12:17:46.926Z,16.63
2018-12-25T12:20:19.999Z,18.60
2018-12-25T12:22:51.298Z,18.30
2018-12-25T12:25:21.075Z,17.27
2018-12-25T12:27:54.018Z,16.83
2018-12-25T12:30:24.892Z,17.00
2018-12-25T12:32:55.782Z,16.30
2018-12-25T12:35:25.790Z,18.10
2018-12-25T12:37:56.599Z,16.57
2018-12-25T12:40:30.799Z,18.80
2018-12-25T12:43:05.717Z,17.83
2018-12-25T12:45:39.785Z,18.50
2018-12-25T12:48:12.283Z,18.40
2018-12-25T12:50:42.100Z,18.23
2018-12-25T12:53:12.732Z,19.00
2018-12-25T12:55:43.598Z,18.47
2018-12-25T12:58:13.373Z,19.67
2018-12-25T13:00:43.199Z,20.50
2018-12-25T13:03:13.124Z,18.47
2018-12-25T13:05:42.946Z,19.20
2018-12-25T13:08:12.782Z,19.53
2018-12-25T13:10:42.798Z,18.37
2018-12-25T13:13:14.456Z,19.67
2018-12-25T13:15:44.299Z,20.07
2018-12-25T13:18:15.356Z,20.80
2018-12-25T13:20:46.183Z,18.10
2018-12-25T13:23:16.005Z,17.80
2018-12-25T13:25:48.067Z,18.60
2018-12-25T13:28:17.994Z,19.07
2018-12-25T13:30:47.861Z,17.50
2018-12-25T13:33:19.421Z,19.43
2018-12-25T13:35:56.070Z,18.17
2018-12-25T13:38:30.851Z,17.30
2018-12-25T13:41:05.139Z,18.20
2018-12-25T13:43:35.125Z,17.53
2018-12-25T13:46:05.172Z,17.80
2018-12-25T13:48:35.274Z,18.17
2018-12-25T13:51:10.366Z,17.00
2018-12-25T13:53:43.036Z,16.90
2018-12-25T13:56:14.652Z,15.40
2018-12-25T13:58:46.734Z,15.80
2018-12-25T14:01:19.449Z,16.10
2018-12-25T14:03:58.779Z,16.07
2018-12-25T14:06:34.554Z,15.77
2018-12-25T14:09:07.240Z,15.23
2018-12-25T14:11:37.115Z,15.97
2018-12-25T14:14:08.265Z,15.80
2018-12-25T14:16:41.563Z,14.33
2018-12-25T14:19:17.556Z,16.40
2018-12-25T14:21:50.556Z,16.40
2018-12-25T14:24:24.653Z,15.07
2018-12-25T14:26:54.564Z,16.20
2018-12-25T14:29:28.599Z,15.37
2018-12-25T14:32:01.367Z,14.20
2018-12-25T14:34:33.204Z,15.87
2018-12-25T14:37:04.463Z,17.90
2018-12-25T14:39:35.808Z,15.80
2018-12-25T14:42:05.577Z,17.33
2018-12-25T14:44:35.410Z,17.40
2018-12-25T14:47:05.405Z,17.00
2018-12-25T14:49:36.930Z,15.63
2018-12-25T14:52:08.542Z,17.03
2018-12-25T14:54:38.566Z,16.23
2018-12-25T14:57:10.330Z,16.83
2018-12-25T14:59:41.815Z,16.87
2018-12-25T15:02:11.544Z,16.37
2018-12-25T15:04:43.012Z,15.17
2018-12-25T15:07:13.942Z,15.90
2018-12-25T15:09:46.282Z,17.53
2018-12-25T15:12:17.750Z,15.80
2018-12-25T15:14:47.731Z,15.60
2018-12-25T15:17:18.901Z,17.07
2018-12-25T15:19:49.516Z,15.03
2018-12-25T15:22:23.392Z,16.20
2018-12-25T15:24:53.230Z,16.33
2018-12-25T15:27:27.132Z,15.33
2018-12-25T15:29:56.909Z,16.97
2018-12-25T15:32:32.896Z,15.60
2018-12-25T15:35:05.867Z,16.97
2018-12-25T15:37:38.086Z,16.93
2018-12-25T15:40:10.055Z,16.67
2018-12-25T15:42:40.856Z,16.50
2018-12-25T15:45:10.553Z,18.17
2018-12-25T15:47:40.669Z,20.23
2018-12-25T15:50:13.220Z,17.80
2018-12-25T15:52:43.987Z,17.57
2018-12-25T15:55:22.810Z,19.07
2018-12-25T15:57:57.595Z,18.50
2018-12-25T16:00:34.802Z,18.20
2018-12-25T16:03:08.174Z,18.87
2018-12-25T16:05:44.513Z,18.57
2018-12-25T16:08:15.920Z,17.27
2018-12-25T16:10:45.626Z,17.60
2018-12-25T16:13:15.485Z,19.33
2018-12-25T16:15:45.202Z,18.70
2018-12-25T16:18:18.975Z,19.00
2018-12-25T16:20:48.656Z,18.97
2018-12-25T16:23:18.736Z,17.23
2018-12-25T16:25:48.658Z,18.00
2018-12-25T16:28:21.368Z,18.17
2018-12-25T16:30:53.002Z,17.60
2018-12-25T16:33:30.512Z,19.53
2018-12-25T16:36:00.302Z,16.63
2018-12-25T16:38:30.115Z,20.60
2018-12-25T16:41:00.023Z,17.30
2018-12-25T16:43:32.579Z,18.40
2018-12-25T16:46:02.458Z,19.40
2018-12-25T16:48:34.474Z,17.03
2018-12-25T16:51:05.930Z,18.77
2018-12-25T16:53:36.371Z,17.70
2018-12-25T16:56:09.623Z,15.60
2018-12-25T16:58:39.549Z,19.10
2018-12-25T17:01:12.172Z,18.40
2018-12-25T17:03:43.328Z,18.67
2018-12-25T17:06:19.157Z,17.97
2018-12-25T17:08:56.030Z,18.10
2018-12-25T17:11:25.073Z,19.00
2018-12-25T17:13:55.009Z,18.80
2018-12-25T17:16:24.716Z,18.13
2018-12-25T17:19:05.522Z,19.47
2018-12-25T17:21:35.455Z,17.47
2018-12-25T17:24:07.856Z,17.50
2018-12-25T17:26:37.827Z,18.00
2018-12-25T17:29:07.706Z,15.57
2018-12-25T17:31:39.756Z,17.20
2018-12-25T17:34:13.983Z,16.83
2018-12-25T17:36:44.739Z,15.77
2018-12-25T17:39:14.388Z,16.57
2018-12-25T17:41:44.010Z,16.33
2018-12-25T17:44:13.849Z,17.40
2018-12-25T17:46:43.478Z,16.43
2018-12-25T17:49:15.719Z,17.17
2018-12-25T17:51:45.373Z,17.80
2018-12-25T17:54:15.135Z,15.43
2018-12-25T17:56:44.789Z,15.90
2018-12-25T17:59:14.743Z,17.30
2018-12-25T18:01:44.609Z,15.37
2018-12-25T18:04:14.385Z,14.50
2018-12-25T18:06:45.635Z,16.00
2018-12-25T18:09:15.454Z,16.00
2018-12-25T18:11:45.171Z,14.70
2018-12-25T18:14:14.810Z,16.03
2018-12-25T18:16:45.638Z,15.60
2018-12-25T18:19:15.417Z,15.00
2018-12-25T18:21:45.160Z,16.93
2018-12-25T18:24:19.375Z,15.47
2018-12-25T18:26:47.349Z,18.00
2018-12-25T18:29:16.984Z,15.63
2018-12-25T18:31:46.606Z,17.17
2018-12-25T18:34:16.450Z,17.90
2018-12-25T18:36:46.093Z,16.50
2018-12-25T18:39:15.925Z,17.13
2018-12-25T18:41:45.791Z,16.77
2018-12-25T18:44:15.549Z,16.90
2018-12-25T18:46:45.356Z,15.40
2018-12-25T18:49:16.338Z,16.87
2018-12-25T18:51:48.746Z,15.97
2018-12-25T18:54:27.736Z,15.90
2018-12-25T18:56:54.467Z,17.50
2018-12-25T18:59:24.215Z,14.87
2018-12-25T19:02:00.114Z,17.00
2018-12-25T19:04:29.816Z,16.40
2018-12-25T19:07:00.498Z,17.67
2018-12-25T19:09:30.206Z,17.50
2018-12-25T19:12:01.268Z,17.60
2018-12-25T19:14:33.515Z,18.17
2018-12-25T19:17:05.306Z,18.03
2018-12-25T19:19:35.294Z,17.40
2018-12-25T19:22:06.890Z,17.20
2018-12-25T19:24:36.966Z,17.60
2018-12-25T19:27:08.778Z,17.50
2018-12-25T19:29:39.714Z,19.13
2018-12-25T19:32:12.874Z,17.40
2018-12-25T19:34:42.630Z,18.10
2018-12-25T19:37:12.327Z,18.37
2018-12-25T19:39:47.769Z,19.67
2018-12-25T19:42:17.573Z,18.90
2018-12-25T19:44:47.238Z,18.17
2018-12-25T19:47:18.906Z,20.53
2018-12-25T19:49:48.637Z,18.70
2018-12-25T19:52:18.413Z,18.90
2018-12-25T19:54:49.657Z,20.60
2018-12-25T19:57:19.440Z,20.90
2018-12-25T19:59:49.359Z,20.20
2018-12-25T20:02:19.038Z,19.83
2018-12-25T20:04:58.650Z,20.20
2018-12-25T20:07:52.263Z,19.40
2018-12-25T20:10:47.695Z,19.40
2018-12-25T20:13:29.013Z,18.97
2018-12-25T20:16:10.761Z,21.00
2018-12-25T20:18:43.628Z,20.57
2018-12-25T20:21:41.781Z,21.23
2018-12-25T20:24:20.405Z,21.20
2018-12-25T20:26:56.084Z,19.43
2018-12-25T20:29:52.037Z,22.23
2018-12-25T20:32:42.649Z,23.07
2018-12-25T20:35:27.389Z,20.93
2018-12-25T20:38:06.056Z,21.67
2018-12-25T20:40:56.612Z,24.50
2018-12-25T20:43:29.279Z,21.90
2018-12-25T20:46:22.934Z,21.23
2018-12-25T20:49:07.710Z,22.93
2018-12-25T20:52:07.459Z,21.53
2018-12-25T20:54:48.915Z,22.33
2018-12-25T20:57:45.135Z,23.67
2018-12-25T21:00:38.000Z,22.57
2018-12-25T21:03:13.203Z,21.97
2018-12-25T21:06:00.808Z,22.10
2018-12-25T21:08:57.284Z,22.70
2018-12-25T21:11:41.502Z,23.00
2018-12-25T21:14:30.458Z,21.87
2018-12-25T21:17:31.694Z,24.13
2018-12-25T21:20:28.114Z,20.70
2018-12-25T21:23:33.940Z,24.70
2018-12-25T21:26:39.758Z,24.17
2018-12-25T21:29:11.057Z,23.00
2018-12-25T21:31:43.733Z,21.80
2018-12-25T21:34:14.705Z,23.90
2018-12-25T21:36:49.532Z,27.60
2018-12-25T21:39:19.648Z,23.63
2018-12-25T21:41:51.377Z,23.17
2018-12-25T21:44:21.500Z,25.33
2018-12-25T21:46:52.595Z,25.87
2018-12-25T21:49:22.602Z,23.70
2018-12-25T21:51:57.780Z,22.63
2018-12-25T21:54:27.699Z,23.80
2018-12-25T21:56:59.500Z,24.33
2018-12-25T21:59:30.134Z,26.13
2018-12-25T22:02:00.001Z,23.60
2018-12-25T22:04:29.934Z,25.17
2018-12-25T22:06:59.526Z,28.20
2018-12-25T22:09:29.203Z,25.43
2018-12-25T22:11:58.821Z,27.10
2018-12-25T22:14:28.611Z,26.27
2018-12-25T22:16:58.371Z,27.97
2018-12-25T22:19:28.114Z,27.47
2018-12-25T22:21:57.818Z,25.40
2018-12-25T22:24:27.500Z,25.87
2018-12-25T22:26:59.760Z,29.77
2018-12-25T22:29:29.549Z,26.90
2018-12-25T22:31:59.145Z,26.27
2018-12-25T22:34:28.816Z,27.00
2018-12-25T22:36:58.528Z,27.37
2018-12-25T22:39:28.152Z,24.90
2018-12-25T22:41:58.679Z,29.13
2018-12-25T22:44:30.427Z,25.77
2018-12-25T22:47:00.024Z,26.17
2018-12-25T22:49:29.718Z,25.40
2018-12-25T22:51:59.359Z,26.40
2018-12-25T22:54:28.919Z,26.10
2018-12-25T22:57:04.323Z,26.30
2018-12-25T22:59:38.243Z,26.57
2018-12-25T23:02:08.076Z,27.17
2018-12-25T23:04:37.799Z,25.13
2018-12-25T23:07:07.461Z,25.40
2018-12-25T23:09:46.043Z,25.93
2018-12-25T23:12:19.370Z,29.30
2018-12-25T23:14:49.093Z,25.17
2018-12-25T23:17:18.829Z,25.80
2018-12-25T23:19:48.443Z,24.77
2018-12-25T23:22:18.122Z,24.37
2018-12-25T23:24:47.992Z,27.83
2018-12-25T23:27:17.696Z,29.03
2018-12-25T23:29:47.352Z,27.03
2018-12-25T23:32:17.059Z,26.30
2018-12-25T23:34:48.570Z,28.60
2018-12-25T23:37:19.869Z,26.77
2018-12-25T23:39:51.093Z,27.23
2018-12-25T23:42:20.850Z,28.10
2018-12-25T23:44:50.565Z,27.80
2018-12-25T23:47:20.128Z,29.87
2018-12-25T23:49:49.955Z,28.27
2018-12-25T23:52:19.581Z,26.40
2018-12-25T23:54:49.422Z,26.13
2018-12-25T23:57:19.047Z,29.57
2018-12-25T23:59:49.721Z,28.70
